sensor_id;sensor_type;location;lat;lon;timestamp;P1;durP1;ratioP1;P2;durP2;ratioP2
49384;SDS011;36795;45.028;38.968;2022-09-09T00:08:28;24.08;;;7.85;;
49384;SDS011;36795;45.028;38.968;2022-09-09T00:11:40;27.10;;;7.37;;
49384;SDS011;36795;45.028;38.968;2022-09-09T00:14:45;23.60;;;7.60;;
49384;SDS011;36795;45.028;38.968;2022-09-09T00:21:21;26.17;;;8.23;;
49384;SDS011;36795;45.028;38.968;2022-09-09T00:24:23;31.10;;;7.87;;
49384;SDS011;36795;45.028;38.968;2022-09-09T00:27:25;26.37;;;7.25;;
49384;SDS011;36795;45.028;38.968;2022-09-09T00:30:34;25.37;;;7.45;;
49384;SDS011;36795;45.028;38.968;2022-09-09T00:33:23;24.55;;;7.12;;
49384;SDS011;36795;45.028;38.968;2022-09-09T00:36:14;26.42;;;8.63;;
49384;SDS011;36795;45.028;38.968;2022-09-09T00:39:04;24.00;;;7.05;;
49384;SDS011;36795;45.028;38.968;2022-09-09T00:44:52;25.42;;;7.22;;
49384;SDS011;36795;45.028;38.968;2022-09-09T00:47:46;28.77;;;7.72;;
49384;SDS011;36795;45.028;38.968;2022-09-09T00:53:28;25.30;;;7.05;;
49384;SDS011;36795;45.028;38.968;2022-09-09T00:56:36;23.75;;;6.35;;
49384;SDS011;36795;45.028;38.968;2022-09-09T00:59:32;25.80;;;7.53;;
49384;SDS011;36795;45.028;38.968;2022-09-09T01:15:17;24.35;;;6.80;;
49384;SDS011;36795;45.028;38.968;2022-09-09T01:18:11;24.83;;;7.37;;
49384;SDS011;36795;45.028;38.968;2022-09-09T01:24:02;27.30;;;7.12;;
49384;SDS011;36795;45.028;38.968;2022-09-09T01:26:56;28.35;;;6.82;;
49384;SDS011;36795;45.028;38.968;2022-09-09T01:29:47;26.87;;;7.00;;
49384;SDS011;36795;45.028;38.968;2022-09-09T01:32:48;27.10;;;6.87;;
49384;SDS011;36795;45.028;38.968;2022-09-09T01:38:31;26.08;;;7.30;;
49384;SDS011;36795;45.028;38.968;2022-09-09T01:41:19;22.95;;;6.95;;
49384;SDS011;36795;45.028;38.968;2022-09-09T01:44:07;22.90;;;6.53;;
49384;SDS011;36795;45.028;38.968;2022-09-09T01:46:54;27.55;;;7.47;;
49384;SDS011;36795;45.028;38.968;2022-09-09T01:49:40;24.55;;;7.45;;
49384;SDS011;36795;45.028;38.968;2022-09-09T01:52:27;21.20;;;6.50;;
49384;SDS011;36795;45.028;38.968;2022-09-09T01:55:13;24.67;;;7.47;;
49384;SDS011;36795;45.028;38.968;2022-09-09T01:58:08;25.05;;;6.53;;
49384;SDS011;36795;45.028;38.968;2022-09-09T02:07:44;21.67;;;7.00;;
49384;SDS011;36795;45.028;38.968;2022-09-09T02:10:55;21.85;;;6.62;;
49384;SDS011;36795;45.028;38.968;2022-09-09T02:13:48;22.55;;;7.20;;
49384;SDS011;36795;45.028;38.968;2022-09-09T02:16:44;22.30;;;7.43;;
49384;SDS011;36795;45.028;38.968;2022-09-09T02:19:37;26.62;;;8.27;;
49384;SDS011;36795;45.028;38.968;2022-09-09T02:22:30;22.23;;;6.97;;
49384;SDS011;36795;45.028;38.968;2022-09-09T02:25:21;22.62;;;6.55;;
49384;SDS011;36795;45.028;38.968;2022-09-09T02:28:10;22.42;;;7.32;;
49384;SDS011;36795;45.028;38.968;2022-09-09T02:30:59;27.50;;;6.93;;
49384;SDS011;36795;45.028;38.968;2022-09-09T02:33:51;22.92;;;6.72;;
49384;SDS011;36795;45.028;38.968;2022-09-09T02:36:40;25.17;;;7.37;;
49384;SDS011;36795;45.028;38.968;2022-09-09T02:39:30;24.23;;;7.50;;
49384;SDS011;36795;45.028;38.968;2022-09-09T02:42:17;24.50;;;7.75;;
49384;SDS011;36795;45.028;38.968;2022-09-09T02:45:05;27.20;;;8.18;;
49384;SDS011;36795;45.028;38.968;2022-09-09T02:48:26;28.58;;;9.65;;
49384;SDS011;36795;45.028;38.968;2022-09-09T02:54:32;35.55;;;11.12;;
49384;SDS011;36795;45.028;38.968;2022-09-09T02:57:25;43.38;;;13.90;;
49384;SDS011;36795;45.028;38.968;2022-09-09T03:00:13;47.17;;;15.27;;
49384;SDS011;36795;45.028;38.968;2022-09-09T03:03:02;41.10;;;14.25;;
49384;SDS011;36795;45.028;38.968;2022-09-09T03:05:50;41.70;;;15.40;;
49384;SDS011;36795;45.028;38.968;2022-09-09T03:08:37;44.45;;;15.60;;
49384;SDS011;36795;45.028;38.968;2022-09-09T03:11:24;44.55;;;14.63;;
49384;SDS011;36795;45.028;38.968;2022-09-09T03:14:10;40.72;;;15.88;;
49384;SDS011;36795;45.028;38.968;2022-09-09T03:16:56;43.22;;;18.02;;
49384;SDS011;36795;45.028;38.968;2022-09-09T03:19:47;51.03;;;20.08;;
49384;SDS011;36795;45.028;38.968;2022-09-09T03:22:35;50.03;;;19.40;;
49384;SDS011;36795;45.028;38.968;2022-09-09T03:25:21;45.35;;;17.92;;
49384;SDS011;36795;45.028;38.968;2022-09-09T03:28:11;45.20;;;18.15;;
49384;SDS011;36795;45.028;38.968;2022-09-09T03:30:58;49.60;;;18.73;;
49384;SDS011;36795;45.028;38.968;2022-09-09T03:33:49;39.42;;;17.23;;
49384;SDS011;36795;45.028;38.968;2022-09-09T03:36:37;44.97;;;17.67;;
49384;SDS011;36795;45.028;38.968;2022-09-09T03:39:23;60.80;;;17.75;;
49384;SDS011;36795;45.028;38.968;2022-09-09T03:42:11;45.80;;;18.58;;
49384;SDS011;36795;45.028;38.968;2022-09-09T03:44:59;50.78;;;19.10;;
49384;SDS011;36795;45.028;38.968;2022-09-09T03:47:46;47.55;;;19.00;;
49384;SDS011;36795;45.028;38.968;2022-09-09T03:50:32;41.60;;;16.67;;
49384;SDS011;36795;45.028;38.968;2022-09-09T03:53:20;40.97;;;17.48;;
49384;SDS011;36795;45.028;38.968;2022-09-09T03:56:07;39.95;;;14.95;;
49384;SDS011;36795;45.028;38.968;2022-09-09T03:58:55;41.88;;;15.70;;
49384;SDS011;36795;45.028;38.968;2022-09-09T04:01:41;42.78;;;15.05;;
49384;SDS011;36795;45.028;38.968;2022-09-09T04:04:28;45.05;;;15.88;;
49384;SDS011;36795;45.028;38.968;2022-09-09T04:07:14;43.72;;;15.45;;
49384;SDS011;36795;45.028;38.968;2022-09-09T04:10:02;42.92;;;15.15;;
49384;SDS011;36795;45.028;38.968;2022-09-09T04:12:48;36.05;;;13.77;;
49384;SDS011;36795;45.028;38.968;2022-09-09T04:15:34;42.55;;;14.60;;
49384;SDS011;36795;45.028;38.968;2022-09-09T04:18:21;35.55;;;14.93;;
49384;SDS011;36795;45.028;38.968;2022-09-09T04:21:09;33.78;;;13.77;;
49384;SDS011;36795;45.028;38.968;2022-09-09T04:23:56;45.83;;;14.50;;
49384;SDS011;36795;45.028;38.968;2022-09-09T04:26:44;47.15;;;16.62;;
49384;SDS011;36795;45.028;38.968;2022-09-09T04:29:31;38.92;;;14.40;;
49384;SDS011;36795;45.028;38.968;2022-09-09T04:32:18;39.05;;;14.27;;
49384;SDS011;36795;45.028;38.968;2022-09-09T04:35:04;37.83;;;12.63;;
49384;SDS011;36795;45.028;38.968;2022-09-09T04:37:51;34.22;;;11.43;;
49384;SDS011;36795;45.028;38.968;2022-09-09T04:40:37;32.47;;;10.57;;
49384;SDS011;36795;45.028;38.968;2022-09-09T04:43:27;31.50;;;10.55;;
49384;SDS011;36795;45.028;38.968;2022-09-09T04:46:15;27.85;;;9.45;;
49384;SDS011;36795;45.028;38.968;2022-09-09T04:49:06;24.83;;;8.70;;
49384;SDS011;36795;45.028;38.968;2022-09-09T04:51:52;28.85;;;8.85;;
49384;SDS011;36795;45.028;38.968;2022-09-09T04:54:38;34.30;;;10.27;;
49384;SDS011;36795;45.028;38.968;2022-09-09T04:57:26;30.88;;;9.25;;
49384;SDS011;36795;45.028;38.968;2022-09-09T05:00:12;25.00;;;8.80;;
49384;SDS011;36795;45.028;38.968;2022-09-09T05:03:02;26.87;;;9.40;;
49384;SDS011;36795;45.028;38.968;2022-09-09T05:05:49;24.65;;;7.75;;
49384;SDS011;36795;45.028;38.968;2022-09-09T05:08:38;25.60;;;9.27;;
49384;SDS011;36795;45.028;38.968;2022-09-09T05:11:28;25.85;;;8.93;;
49384;SDS011;36795;45.028;38.968;2022-09-09T05:14:16;28.12;;;9.40;;
49384;SDS011;36795;45.028;38.968;2022-09-09T05:17:03;25.42;;;9.35;;
49384;SDS011;36795;45.028;38.968;2022-09-09T05:19:50;26.67;;;9.38;;
49384;SDS011;36795;45.028;38.968;2022-09-09T05:22:37;26.30;;;7.85;;
49384;SDS011;36795;45.028;38.968;2022-09-09T05:25:23;26.30;;;9.05;;
49384;SDS011;36795;45.028;38.968;2022-09-09T05:28:12;30.00;;;7.90;;
49384;SDS011;36795;45.028;38.968;2022-09-09T05:30:59;23.90;;;7.22;;
49384;SDS011;36795;45.028;38.968;2022-09-09T05:33:53;24.63;;;7.18;;
49384;SDS011;36795;45.028;38.968;2022-09-09T05:36:43;29.70;;;7.90;;
49384;SDS011;36795;45.028;38.968;2022-09-09T05:39:31;25.45;;;7.78;;
49384;SDS011;36795;45.028;38.968;2022-09-09T05:42:18;26.23;;;7.87;;
49384;SDS011;36795;45.028;38.968;2022-09-09T05:45:08;26.17;;;8.13;;
49384;SDS011;36795;45.028;38.968;2022-09-09T05:47:55;28.38;;;7.75;;
49384;SDS011;36795;45.028;38.968;2022-09-09T05:50:42;27.90;;;7.28;;
49384;SDS011;36795;45.028;38.968;2022-09-09T05:53:29;27.23;;;8.77;;
49384;SDS011;36795;45.028;38.968;2022-09-09T05:56:26;26.83;;;8.10;;
49384;SDS011;36795;45.028;38.968;2022-09-09T05:59:13;28.60;;;9.18;;
49384;SDS011;36795;45.028;38.968;2022-09-09T06:02:00;27.87;;;8.70;;
49384;SDS011;36795;45.028;38.968;2022-09-09T06:04:47;28.48;;;8.65;;
49384;SDS011;36795;45.028;38.968;2022-09-09T06:07:33;22.35;;;7.68;;
49384;SDS011;36795;45.028;38.968;2022-09-09T06:10:21;23.87;;;8.18;;
49384;SDS011;36795;45.028;38.968;2022-09-09T06:13:11;26.67;;;7.25;;
49384;SDS011;36795;45.028;38.968;2022-09-09T06:15:59;21.35;;;6.97;;
49384;SDS011;36795;45.028;38.968;2022-09-09T06:18:45;25.55;;;8.15;;
49384;SDS011;36795;45.028;38.968;2022-09-09T06:21:34;24.15;;;6.90;;
49384;SDS011;36795;45.028;38.968;2022-09-09T06:24:22;20.50;;;6.57;;
49384;SDS011;36795;45.028;38.968;2022-09-09T06:27:08;25.85;;;7.57;;
49384;SDS011;36795;45.028;38.968;2022-09-09T06:29:55;25.65;;;6.18;;
49384;SDS011;36795;45.028;38.968;2022-09-09T06:32:42;25.45;;;6.10;;
49384;SDS011;36795;45.028;38.968;2022-09-09T06:35:28;19.12;;;5.20;;
49384;SDS011;36795;45.028;38.968;2022-09-09T06:38:15;16.70;;;4.50;;
49384;SDS011;36795;45.028;38.968;2022-09-09T06:41:01;21.60;;;5.05;;
49384;SDS011;36795;45.028;38.968;2022-09-09T06:43:52;21.37;;;5.07;;
49384;SDS011;36795;45.028;38.968;2022-09-09T06:46:46;21.58;;;4.32;;
49384;SDS011;36795;45.028;38.968;2022-09-09T06:49:35;20.35;;;5.35;;
49384;SDS011;36795;45.028;38.968;2022-09-09T06:52:23;19.00;;;4.50;;
49384;SDS011;36795;45.028;38.968;2022-09-09T06:55:10;18.45;;;4.65;;
49384;SDS011;36795;45.028;38.968;2022-09-09T06:57:58;25.30;;;6.47;;
49384;SDS011;36795;45.028;38.968;2022-09-09T07:00:45;29.45;;;7.70;;
49384;SDS011;36795;45.028;38.968;2022-09-09T07:03:31;27.37;;;7.70;;
49384;SDS011;36795;45.028;38.968;2022-09-09T07:06:23;25.65;;;7.72;;
49384;SDS011;36795;45.028;38.968;2022-09-09T07:09:13;23.60;;;6.93;;
49384;SDS011;36795;45.028;38.968;2022-09-09T07:12:02;27.33;;;8.45;;
49384;SDS011;36795;45.028;38.968;2022-09-09T07:14:51;30.42;;;8.55;;
49384;SDS011;36795;45.028;38.968;2022-09-09T07:17:37;28.62;;;7.65;;
49384;SDS011;36795;45.028;38.968;2022-09-09T07:20:24;25.98;;;6.85;;
49384;SDS011;36795;45.028;38.968;2022-09-09T07:23:10;34.20;;;8.93;;
49384;SDS011;36795;45.028;38.968;2022-09-09T07:25:58;29.85;;;11.27;;
49384;SDS011;36795;45.028;38.968;2022-09-09T07:28:45;28.25;;;8.25;;
49384;SDS011;36795;45.028;38.968;2022-09-09T07:31:33;24.60;;;6.82;;
49384;SDS011;36795;45.028;38.968;2022-09-09T07:34:22;27.05;;;7.95;;
49384;SDS011;36795;45.028;38.968;2022-09-09T07:37:09;22.33;;;6.90;;
49384;SDS011;36795;45.028;38.968;2022-09-09T07:39:58;27.62;;;8.25;;
49384;SDS011;36795;45.028;38.968;2022-09-09T07:42:45;21.60;;;6.70;;
49384;SDS011;36795;45.028;38.968;2022-09-09T07:45:33;28.25;;;8.02;;
49384;SDS011;36795;45.028;38.968;2022-09-09T07:48:19;33.67;;;8.20;;
49384;SDS011;36795;45.028;38.968;2022-09-09T07:51:07;27.42;;;6.93;;
49384;SDS011;36795;45.028;38.968;2022-09-09T07:54:03;24.90;;;6.35;;
49384;SDS011;36795;45.028;38.968;2022-09-09T07:56:55;29.27;;;6.12;;
49384;SDS011;36795;45.028;38.968;2022-09-09T07:59:41;29.77;;;6.80;;
49384;SDS011;36795;45.028;38.968;2022-09-09T08:02:29;21.45;;;5.87;;
49384;SDS011;36795;45.028;38.968;2022-09-09T08:05:27;26.60;;;6.68;;
49384;SDS011;36795;45.028;38.968;2022-09-09T08:08:14;28.35;;;6.25;;
49384;SDS011;36795;45.028;38.968;2022-09-09T08:11:06;24.52;;;5.07;;
49384;SDS011;36795;45.028;38.968;2022-09-09T08:14:02;20.27;;;4.78;;
49384;SDS011;36795;45.028;38.968;2022-09-09T08:16:49;20.62;;;4.87;;
49384;SDS011;36795;45.028;38.968;2022-09-09T08:19:35;23.50;;;4.20;;
49384;SDS011;36795;45.028;38.968;2022-09-09T08:22:22;20.60;;;4.30;;
49384;SDS011;36795;45.028;38.968;2022-09-09T08:25:09;22.83;;;4.93;;
49384;SDS011;36795;45.028;38.968;2022-09-09T08:27:55;23.67;;;4.85;;
49384;SDS011;36795;45.028;38.968;2022-09-09T08:30:42;20.30;;;4.60;;
49384;SDS011;36795;45.028;38.968;2022-09-09T08:33:28;18.50;;;4.28;;
49384;SDS011;36795;45.028;38.968;2022-09-09T08:36:16;17.67;;;3.17;;
49384;SDS011;36795;45.028;38.968;2022-09-09T08:39:05;17.30;;;3.37;;
49384;SDS011;36795;45.028;38.968;2022-09-09T08:45:37;15.02;;;3.35;;
49384;SDS011;36795;45.028;38.968;2022-09-09T08:51:44;13.15;;;2.92;;
49384;SDS011;36795;45.028;38.968;2022-09-09T08:54:33;14.98;;;3.33;;
49384;SDS011;36795;45.028;38.968;2022-09-09T08:57:23;12.15;;;3.22;;
49384;SDS011;36795;45.028;38.968;2022-09-09T09:00:13;13.30;;;3.05;;
49384;SDS011;36795;45.028;38.968;2022-09-09T09:11:37;12.93;;;3.00;;
49384;SDS011;36795;45.028;38.968;2022-09-09T09:14:25;14.43;;;3.00;;
49384;SDS011;36795;45.028;38.968;2022-09-09T09:20:05;18.05;;;3.22;;
49384;SDS011;36795;45.028;38.968;2022-09-09T09:22:57;11.27;;;2.92;;
49384;SDS011;36795;45.028;38.968;2022-09-09T09:25:48;14.43;;;3.00;;
49384;SDS011;36795;45.028;38.968;2022-09-09T09:28:36;12.88;;;3.33;;
49384;SDS011;36795;45.028;38.968;2022-09-09T09:31:23;13.35;;;2.95;;
49384;SDS011;36795;45.028;38.968;2022-09-09T09:34:11;10.48;;;3.05;;
49384;SDS011;36795;45.028;38.968;2022-09-09T09:37:01;11.80;;;3.20;;
49384;SDS011;36795;45.028;38.968;2022-09-09T09:40:07;12.98;;;2.75;;
49384;SDS011;36795;45.028;38.968;2022-09-09T09:42:59;14.07;;;2.75;;
49384;SDS011;36795;45.028;38.968;2022-09-09T09:45:46;11.18;;;3.20;;
49384;SDS011;36795;45.028;38.968;2022-09-09T09:48:34;10.30;;;3.00;;
49384;SDS011;36795;45.028;38.968;2022-09-09T09:51:20;12.40;;;2.83;;
49384;SDS011;36795;45.028;38.968;2022-09-09T09:57:22;11.40;;;3.03;;
49384;SDS011;36795;45.028;38.968;2022-09-09T10:00:17;18.30;;;3.47;;
49384;SDS011;36795;45.028;38.968;2022-09-09T10:03:17;18.65;;;3.28;;
49384;SDS011;36795;45.028;38.968;2022-09-09T10:06:12;14.70;;;3.15;;
49384;SDS011;36795;45.028;38.968;2022-09-09T10:08:58;13.90;;;2.90;;
49384;SDS011;36795;45.028;38.968;2022-09-09T10:21:08;16.20;;;3.55;;
49384;SDS011;36795;45.028;38.968;2022-09-09T10:24:33;12.45;;;3.60;;
49384;SDS011;36795;45.028;38.968;2022-09-09T10:30:19;17.12;;;4.05;;
49384;SDS011;36795;45.028;38.968;2022-09-09T10:33:10;16.55;;;3.85;;
49384;SDS011;36795;45.028;38.968;2022-09-09T10:36:17;20.08;;;4.20;;
49384;SDS011;36795;45.028;38.968;2022-09-09T10:42:07;15.63;;;4.00;;
49384;SDS011;36795;45.028;38.968;2022-09-09T10:45:05;17.80;;;3.92;;
49384;SDS011;36795;45.028;38.968;2022-09-09T10:51:28;13.85;;;4.20;;
49384;SDS011;36795;45.028;38.968;2022-09-09T10:54:31;20.12;;;4.37;;
49384;SDS011;36795;45.028;38.968;2022-09-09T11:00:22;20.33;;;3.42;;
49384;SDS011;36795;45.028;38.968;2022-09-09T11:03:20;16.05;;;3.80;;
49384;SDS011;36795;45.028;38.968;2022-09-09T11:06:14;26.73;;;7.62;;
49384;SDS011;36795;45.028;38.968;2022-09-09T11:09:05;17.60;;;4.43;;
49384;SDS011;36795;45.028;38.968;2022-09-09T11:11:57;13.98;;;3.58;;
49384;SDS011;36795;45.028;38.968;2022-09-09T11:15:03;17.15;;;3.62;;
49384;SDS011;36795;45.028;38.968;2022-09-09T11:18:01;15.60;;;3.72;;
49384;SDS011;36795;45.028;38.968;2022-09-09T11:20:51;13.32;;;3.65;;
49384;SDS011;36795;45.028;38.968;2022-09-09T11:23:42;20.65;;;4.10;;
49384;SDS011;36795;45.028;38.968;2022-09-09T11:26:37;12.90;;;3.95;;
49384;SDS011;36795;45.028;38.968;2022-09-09T11:33:00;19.87;;;4.95;;
49384;SDS011;36795;45.028;38.968;2022-09-09T11:39:52;18.37;;;3.72;;
49384;SDS011;36795;45.028;38.968;2022-09-09T11:42:23;14.20;;;3.78;;
49384;SDS011;36795;45.028;38.968;2022-09-09T11:45:15;24.42;;;6.50;;
49384;SDS011;36795;45.028;38.968;2022-09-09T11:48:05;16.75;;;3.75;;
49384;SDS011;36795;45.028;38.968;2022-09-09T11:51:08;17.10;;;3.37;;
49384;SDS011;36795;45.028;38.968;2022-09-09T11:54:25;20.85;;;4.40;;
49384;SDS011;36795;45.028;38.968;2022-09-09T11:57:31;22.52;;;5.18;;
49384;SDS011;36795;45.028;38.968;2022-09-09T12:09:54;21.00;;;5.62;;
49384;SDS011;36795;45.028;38.968;2022-09-09T12:13:13;21.52;;;5.20;;
49384;SDS011;36795;45.028;38.968;2022-09-09T12:16:05;23.40;;;5.10;;
49384;SDS011;36795;45.028;38.968;2022-09-09T12:19:15;25.02;;;7.97;;
49384;SDS011;36795;45.028;38.968;2022-09-09T12:22:07;21.12;;;5.65;;
49384;SDS011;36795;45.028;38.968;2022-09-09T12:28:27;16.90;;;5.75;;
49384;SDS011;36795;45.028;38.968;2022-09-09T12:40:36;25.55;;;6.82;;
49384;SDS011;36795;45.028;38.968;2022-09-09T12:43:27;20.58;;;6.85;;
49384;SDS011;36795;45.028;38.968;2022-09-09T12:46:23;23.35;;;7.43;;
49384;SDS011;36795;45.028;38.968;2022-09-09T12:49:38;26.20;;;6.45;;
49384;SDS011;36795;45.028;38.968;2022-09-09T12:52:31;22.45;;;6.72;;
49384;SDS011;36795;45.028;38.968;2022-09-09T12:55:21;19.60;;;6.53;;
49384;SDS011;36795;45.028;38.968;2022-09-09T12:58:11;22.65;;;6.55;;
49384;SDS011;36795;45.028;38.968;2022-09-09T13:01:02;18.80;;;5.87;;
49384;SDS011;36795;45.028;38.968;2022-09-09T13:03:50;30.08;;;9.18;;
49384;SDS011;36795;45.028;38.968;2022-09-09T13:06:37;21.95;;;5.35;;
49384;SDS011;36795;45.028;38.968;2022-09-09T13:09:23;22.27;;;5.22;;
49384;SDS011;36795;45.028;38.968;2022-09-09T13:12:14;27.35;;;6.50;;
49384;SDS011;36795;45.028;38.968;2022-09-09T13:17:59;18.90;;;4.87;;
49384;SDS011;36795;45.028;38.968;2022-09-09T13:20:51;20.15;;;4.93;;
49384;SDS011;36795;45.028;38.968;2022-09-09T13:23:38;16.83;;;4.32;;
49384;SDS011;36795;45.028;38.968;2022-09-09T13:26:25;15.52;;;4.10;;
49384;SDS011;36795;45.028;38.968;2022-09-09T13:29:18;19.48;;;4.90;;
49384;SDS011;36795;45.028;38.968;2022-09-09T13:32:17;16.42;;;4.70;;
49384;SDS011;36795;45.028;38.968;2022-09-09T13:35:04;19.87;;;4.75;;
49384;SDS011;36795;45.028;38.968;2022-09-09T13:38:08;17.33;;;5.65;;
49384;SDS011;36795;45.028;38.968;2022-09-09T13:40:56;20.95;;;5.65;;
49384;SDS011;36795;45.028;38.968;2022-09-09T13:43:50;20.20;;;4.40;;
49384;SDS011;36795;45.028;38.968;2022-09-09T13:46:37;22.67;;;4.57;;
49384;SDS011;36795;45.028;38.968;2022-09-09T13:49:28;19.23;;;4.70;;
49384;SDS011;36795;45.028;38.968;2022-09-09T13:52:15;25.92;;;4.55;;
49384;SDS011;36795;45.028;38.968;2022-09-09T13:55:04;16.73;;;4.22;;
49384;SDS011;36795;45.028;38.968;2022-09-09T13:57:52;20.48;;;4.62;;
49384;SDS011;36795;45.028;38.968;2022-09-09T14:00:42;17.15;;;3.92;;
49384;SDS011;36795;45.028;38.968;2022-09-09T14:03:30;13.23;;;3.55;;
49384;SDS011;36795;45.028;38.968;2022-09-09T14:06:15;20.15;;;4.12;;
49384;SDS011;36795;45.028;38.968;2022-09-09T14:09:04;14.30;;;3.95;;
49384;SDS011;36795;45.028;38.968;2022-09-09T14:11:51;17.80;;;4.37;;
49384;SDS011;36795;45.028;38.968;2022-09-09T14:14:38;18.77;;;4.32;;
49384;SDS011;36795;45.028;38.968;2022-09-09T14:17:24;17.80;;;4.05;;
49384;SDS011;36795;45.028;38.968;2022-09-09T14:20:10;18.75;;;5.07;;
49384;SDS011;36795;45.028;38.968;2022-09-09T14:22:59;20.90;;;4.28;;
49384;SDS011;36795;45.028;38.968;2022-09-09T14:25:45;21.12;;;4.40;;
49384;SDS011;36795;45.028;38.968;2022-09-09T14:28:31;18.42;;;4.65;;
49384;SDS011;36795;45.028;38.968;2022-09-09T14:31:19;23.90;;;4.95;;
49384;SDS011;36795;45.028;38.968;2022-09-09T14:34:05;23.77;;;5.45;;
49384;SDS011;36795;45.028;38.968;2022-09-09T14:36:52;18.50;;;5.03;;
49384;SDS011;36795;45.028;38.968;2022-09-09T14:39:38;21.10;;;4.68;;
49384;SDS011;36795;45.028;38.968;2022-09-09T14:42:24;23.27;;;5.75;;
49384;SDS011;36795;45.028;38.968;2022-09-09T14:45:12;15.85;;;4.50;;
49384;SDS011;36795;45.028;38.968;2022-09-09T14:47:58;20.70;;;4.78;;
49384;SDS011;36795;45.028;38.968;2022-09-09T14:50:45;19.45;;;4.43;;
49384;SDS011;36795;45.028;38.968;2022-09-09T14:53:32;20.15;;;4.82;;
49384;SDS011;36795;45.028;38.968;2022-09-09T14:56:19;20.67;;;4.65;;
49384;SDS011;36795;45.028;38.968;2022-09-09T14:59:08;17.92;;;4.72;;
49384;SDS011;36795;45.028;38.968;2022-09-09T15:01:53;18.80;;;4.43;;
49384;SDS011;36795;45.028;38.968;2022-09-09T15:04:40;20.88;;;5.12;;
49384;SDS011;36795;45.028;38.968;2022-09-09T15:07:26;21.30;;;4.57;;
49384;SDS011;36795;45.028;38.968;2022-09-09T15:10:13;23.08;;;4.93;;
49384;SDS011;36795;45.028;38.968;2022-09-09T15:13:00;19.55;;;5.15;;
49384;SDS011;36795;45.028;38.968;2022-09-09T15:15:46;24.23;;;4.87;;
49384;SDS011;36795;45.028;38.968;2022-09-09T15:18:32;27.17;;;6.15;;
49384;SDS011;36795;45.028;38.968;2022-09-09T15:21:20;23.48;;;4.68;;
49384;SDS011;36795;45.028;38.968;2022-09-09T15:24:07;20.80;;;4.72;;
49384;SDS011;36795;45.028;38.968;2022-09-09T15:26:53;19.85;;;4.45;;
49384;SDS011;36795;45.028;38.968;2022-09-09T15:29:39;22.48;;;8.60;;
49384;SDS011;36795;45.028;38.968;2022-09-09T15:32:26;26.00;;;6.70;;
49384;SDS011;36795;45.028;38.968;2022-09-09T15:35:14;20.20;;;6.72;;
49384;SDS011;36795;45.028;38.968;2022-09-09T15:38:01;19.98;;;4.47;;
49384;SDS011;36795;45.028;38.968;2022-09-09T15:40:53;25.00;;;5.57;;
49384;SDS011;36795;45.028;38.968;2022-09-09T15:43:47;22.77;;;5.35;;
49384;SDS011;36795;45.028;38.968;2022-09-09T15:46:38;23.55;;;6.05;;
49384;SDS011;36795;45.028;38.968;2022-09-09T15:49:26;34.70;;;6.87;;
49384;SDS011;36795;45.028;38.968;2022-09-09T15:52:12;21.17;;;5.80;;
49384;SDS011;36795;45.028;38.968;2022-09-09T15:54:58;23.42;;;5.35;;
49384;SDS011;36795;45.028;38.968;2022-09-09T15:57:45;24.02;;;5.68;;
49384;SDS011;36795;45.028;38.968;2022-09-09T16:00:32;21.42;;;5.68;;
49384;SDS011;36795;45.028;38.968;2022-09-09T16:03:19;27.90;;;7.53;;
49384;SDS011;36795;45.028;38.968;2022-09-09T16:06:06;23.60;;;6.05;;
49384;SDS011;36795;45.028;38.968;2022-09-09T16:08:53;21.48;;;5.93;;
49384;SDS011;36795;45.028;38.968;2022-09-09T16:11:39;25.48;;;7.50;;
49384;SDS011;36795;45.028;38.968;2022-09-09T16:14:26;24.20;;;5.70;;
49384;SDS011;36795;45.028;38.968;2022-09-09T16:17:12;22.95;;;6.28;;
49384;SDS011;36795;45.028;38.968;2022-09-09T16:20:00;28.27;;;7.87;;
49384;SDS011;36795;45.028;38.968;2022-09-09T16:22:47;23.10;;;7.68;;
49384;SDS011;36795;45.028;38.968;2022-09-09T16:25:33;33.80;;;7.65;;
49384;SDS011;36795;45.028;38.968;2022-09-09T16:28:19;29.80;;;8.25;;
49384;SDS011;36795;45.028;38.968;2022-09-09T16:31:09;27.48;;;9.82;;
49384;SDS011;36795;45.028;38.968;2022-09-09T16:33:59;26.12;;;7.80;;
49384;SDS011;36795;45.028;38.968;2022-09-09T16:36:45;32.00;;;9.23;;
49384;SDS011;36795;45.028;38.968;2022-09-09T16:39:33;32.38;;;10.07;;
49384;SDS011;36795;45.028;38.968;2022-09-09T16:42:19;30.40;;;8.60;;
49384;SDS011;36795;45.028;38.968;2022-09-09T16:45:05;31.75;;;9.82;;
49384;SDS011;36795;45.028;38.968;2022-09-09T16:47:52;35.08;;;11.18;;
49384;SDS011;36795;45.028;38.968;2022-09-09T16:50:38;35.88;;;11.12;;
49384;SDS011;36795;45.028;38.968;2022-09-09T16:53:25;32.38;;;10.40;;
49384;SDS011;36795;45.028;38.968;2022-09-09T16:56:13;30.35;;;11.18;;
49384;SDS011;36795;45.028;38.968;2022-09-09T16:59:02;36.83;;;11.20;;
49384;SDS011;36795;45.028;38.968;2022-09-09T17:01:50;47.08;;;11.57;;
49384;SDS011;36795;45.028;38.968;2022-09-09T17:04:37;35.30;;;11.75;;
49384;SDS011;36795;45.028;38.968;2022-09-09T17:07:33;37.08;;;11.12;;
49384;SDS011;36795;45.028;38.968;2022-09-09T17:10:19;40.75;;;12.45;;
49384;SDS011;36795;45.028;38.968;2022-09-09T17:13:05;38.13;;;11.45;;
49384;SDS011;36795;45.028;38.968;2022-09-09T17:15:58;38.30;;;14.95;;
49384;SDS011;36795;45.028;38.968;2022-09-09T17:18:52;39.33;;;12.82;;
49384;SDS011;36795;45.028;38.968;2022-09-09T17:21:39;41.65;;;13.57;;
49384;SDS011;36795;45.028;38.968;2022-09-09T17:24:26;35.80;;;12.10;;
49384;SDS011;36795;45.028;38.968;2022-09-09T17:27:14;35.65;;;12.05;;
49384;SDS011;36795;45.028;38.968;2022-09-09T17:30:00;33.97;;;11.82;;
49384;SDS011;36795;45.028;38.968;2022-09-09T17:32:48;37.42;;;13.75;;
49384;SDS011;36795;45.028;38.968;2022-09-09T17:35:34;38.45;;;14.60;;
49384;SDS011;36795;45.028;38.968;2022-09-09T17:38:20;37.22;;;13.73;;
49384;SDS011;36795;45.028;38.968;2022-09-09T17:41:18;39.67;;;15.85;;
49384;SDS011;36795;45.028;38.968;2022-09-09T17:44:09;35.88;;;13.00;;
49384;SDS011;36795;45.028;38.968;2022-09-09T17:46:56;37.55;;;13.75;;
49384;SDS011;36795;45.028;38.968;2022-09-09T17:49:43;33.15;;;13.48;;
49384;SDS011;36795;45.028;38.968;2022-09-09T17:52:29;35.10;;;14.18;;
49384;SDS011;36795;45.028;38.968;2022-09-09T17:55:16;41.20;;;15.02;;
49384;SDS011;36795;45.028;38.968;2022-09-09T17:58:02;39.70;;;14.60;;
49384;SDS011;36795;45.028;38.968;2022-09-09T18:00:48;57.05;;;29.60;;
49384;SDS011;36795;45.028;38.968;2022-09-09T18:03:36;42.58;;;19.42;;
49384;SDS011;36795;45.028;38.968;2022-09-09T18:06:25;43.50;;;19.75;;
49384;SDS011;36795;45.028;38.968;2022-09-09T18:09:14;41.40;;;19.80;;
49384;SDS011;36795;45.028;38.968;2022-09-09T18:12:02;45.78;;;22.58;;
49384;SDS011;36795;45.028;38.968;2022-09-09T18:14:48;49.05;;;24.83;;
49384;SDS011;36795;45.028;38.968;2022-09-09T18:17:35;40.78;;;21.25;;
49384;SDS011;36795;45.028;38.968;2022-09-09T18:20:21;43.70;;;19.70;;
49384;SDS011;36795;45.028;38.968;2022-09-09T18:23:08;47.80;;;18.37;;
49384;SDS011;36795;45.028;38.968;2022-09-09T18:25:54;39.03;;;18.62;;
49384;SDS011;36795;45.028;38.968;2022-09-09T18:28:41;37.47;;;17.12;;
49384;SDS011;36795;45.028;38.968;2022-09-09T18:31:31;43.87;;;16.67;;